sensor_id;sensor_type;location;lat;lon;timestamp;P1;durP1;ratioP1;P2;durP2;ratioP2
70342;SDS011;57767;42.068;24.752;2023-04-24T00:00:06;10.13;;;7.50;;
70342;SDS011;57767;42.068;24.752;2023-04-24T00:01:10;11.23;;;7.53;;
70342;SDS011;57767;42.068;24.752;2023-04-24T00:02:14;10.40;;;7.22;;
70342;SDS011;57767;42.068;24.752;2023-04-24T00:03:16;9.77;;;7.80;;
70342;SDS011;57767;42.068;24.752;2023-04-24T00:04:18;10.00;;;7.97;;
70342;SDS011;57767;42.068;24.752;2023-04-24T00:05:20;13.30;;;7.88;;
70342;SDS011;57767;42.068;24.752;2023-04-24T00:06:22;11.20;;;7.80;;
70342;SDS011;57767;42.068;24.752;2023-04-24T00:07:24;10.77;;;7.55;;
70342;SDS011;57767;42.068;24.752;2023-04-24T00:08:26;17.02;;;8.57;;
70342;SDS011;57767;42.068;24.752;2023-04-24T00:09:28;13.30;;;6.78;;
70342;SDS011;57767;42.068;24.752;2023-04-24T00:10:30;10.90;;;7.72;;
70342;SDS011;57767;42.068;24.752;2023-04-24T00:11:33;12.25;;;7.80;;
70342;SDS011;57767;42.068;24.752;2023-04-24T00:12:35;13.98;;;9.43;;
70342;SDS011;57767;42.068;24.752;2023-04-24T00:13:37;12.48;;;8.15;;
70342;SDS011;57767;42.068;24.752;2023-04-24T00:14:39;11.48;;;7.93;;
70342;SDS011;57767;42.068;24.752;2023-04-24T00:15:41;16.55;;;7.57;;
70342;SDS011;57767;42.068;24.752;2023-04-24T00:16:43;13.85;;;7.90;;
70342;SDS011;57767;42.068;24.752;2023-04-24T00:17:45;9.80;;;7.90;;
70342;SDS011;57767;42.068;24.752;2023-04-24T00:18:47;12.80;;;7.95;;
70342;SDS011;57767;42.068;24.752;2023-04-24T00:19:49;10.13;;;7.13;;
70342;SDS011;57767;42.068;24.752;2023-04-24T00:21:02;14.95;;;7.88;;
70342;SDS011;57767;42.068;24.752;2023-04-24T00:22:04;13.00;;;7.78;;
70342;SDS011;57767;42.068;24.752;2023-04-24T00:23:06;11.32;;;7.57;;
70342;SDS011;57767;42.068;24.752;2023-04-24T00:24:08;11.00;;;7.13;;
70342;SDS011;57767;42.068;24.752;2023-04-24T00:25:10;11.70;;;7.32;;
70342;SDS011;57767;42.068;24.752;2023-04-24T00:26:12;11.45;;;7.80;;
70342;SDS011;57767;42.068;24.752;2023-04-24T00:27:14;10.43;;;7.88;;
70342;SDS011;57767;42.068;24.752;2023-04-24T00:28:15;11.80;;;7.80;;
70342;SDS011;57767;42.068;24.752;2023-04-24T00:29:17;14.43;;;7.82;;
70342;SDS011;57767;42.068;24.752;2023-04-24T00:30:19;10.57;;;7.30;;
70342;SDS011;57767;42.068;24.752;2023-04-24T00:31:21;10.65;;;7.93;;
70342;SDS011;57767;42.068;24.752;2023-04-24T00:32:23;11.18;;;7.53;;
70342;SDS011;57767;42.068;24.752;2023-04-24T00:33:24;12.80;;;8.30;;
70342;SDS011;57767;42.068;24.752;2023-04-24T00:34:26;12.25;;;8.52;;
70342;SDS011;57767;42.068;24.752;2023-04-24T00:35:28;11.15;;;8.05;;
70342;SDS011;57767;42.068;24.752;2023-04-24T00:36:30;12.73;;;7.85;;
70342;SDS011;57767;42.068;24.752;2023-04-24T00:37:32;17.60;;;7.57;;
70342;SDS011;57767;42.068;24.752;2023-04-24T00:38:33;10.30;;;7.97;;
70342;SDS011;57767;42.068;24.752;2023-04-24T00:39:35;12.60;;;7.78;;
70342;SDS011;57767;42.068;24.752;2023-04-24T00:40:37;9.05;;;7.80;;
70342;SDS011;57767;42.068;24.752;2023-04-24T00:41:39;9.35;;;7.55;;
70342;SDS011;57767;42.068;24.752;2023-04-24T00:42:41;15.02;;;8.55;;
70342;SDS011;57767;42.068;24.752;2023-04-24T00:43:44;14.38;;;7.85;;
70342;SDS011;57767;42.068;24.752;2023-04-24T00:44:46;11.68;;;7.93;;
70342;SDS011;57767;42.068;24.752;2023-04-24T00:45:48;11.32;;;7.57;;
70342;SDS011;57767;42.068;24.752;2023-04-24T00:46:50;12.07;;;7.50;;
70342;SDS011;57767;42.068;24.752;2023-04-24T00:47:55;11.85;;;8.05;;
70342;SDS011;57767;42.068;24.752;2023-04-24T00:48:58;12.43;;;8.18;;
70342;SDS011;57767;42.068;24.752;2023-04-24T00:50:02;9.00;;;8.05;;
70342;SDS011;57767;42.068;24.752;2023-04-24T00:51:05;11.43;;;7.90;;
70342;SDS011;57767;42.068;24.752;2023-04-24T00:52:06;13.90;;;7.95;;
70342;SDS011;57767;42.068;24.752;2023-04-24T00:53:10;10.88;;;8.35;;
70342;SDS011;57767;42.068;24.752;2023-04-24T00:54:12;14.18;;;8.98;;
70342;SDS011;57767;42.068;24.752;2023-04-24T00:55:14;14.95;;;8.63;;
70342;SDS011;57767;42.068;24.752;2023-04-24T00:56:16;9.63;;;7.78;;
70342;SDS011;57767;42.068;24.752;2023-04-24T00:57:18;15.30;;;6.90;;
70342;SDS011;57767;42.068;24.752;2023-04-24T00:58:20;9.35;;;6.63;;
70342;SDS011;57767;42.068;24.752;2023-04-24T00:59:22;11.65;;;7.07;;
70342;SDS011;57767;42.068;24.752;2023-04-24T01:00:24;9.40;;;6.32;;
70342;SDS011;57767;42.068;24.752;2023-04-24T01:01:26;11.48;;;6.57;;
70342;SDS011;57767;42.068;24.752;2023-04-24T01:02:28;10.00;;;7.07;;
70342;SDS011;57767;42.068;24.752;2023-04-24T01:03:31;9.27;;;6.47;;
70342;SDS011;57767;42.068;24.752;2023-04-24T01:04:33;9.35;;;6.95;;
70342;SDS011;57767;42.068;24.752;2023-04-24T01:05:36;15.32;;;8.07;;
70342;SDS011;57767;42.068;24.752;2023-04-24T01:06:38;10.23;;;7.70;;
70342;SDS011;57767;42.068;24.752;2023-04-24T01:07:41;13.57;;;8.15;;
70342;SDS011;57767;42.068;24.752;2023-04-24T01:08:47;12.60;;;8.20;;
70342;SDS011;57767;42.068;24.752;2023-04-24T01:09:49;12.10;;;8.73;;
70342;SDS011;57767;42.068;24.752;2023-04-24T01:10:53;14.27;;;8.35;;
70342;SDS011;57767;42.068;24.752;2023-04-24T01:11:55;11.80;;;8.18;;
70342;SDS011;57767;42.068;24.752;2023-04-24T01:12:57;11.02;;;7.65;;
70342;SDS011;57767;42.068;24.752;2023-04-24T01:13:59;13.38;;;8.07;;
70342;SDS011;57767;42.068;24.752;2023-04-24T01:15:03;11.50;;;7.20;;
70342;SDS011;57767;42.068;24.752;2023-04-24T01:16:05;10.60;;;7.35;;
70342;SDS011;57767;42.068;24.752;2023-04-24T01:17:07;9.60;;;7.45;;
70342;SDS011;57767;42.068;24.752;2023-04-24T01:18:10;12.18;;;7.07;;
70342;SDS011;57767;42.068;24.752;2023-04-24T01:19:12;13.60;;;7.30;;
70342;SDS011;57767;42.068;24.752;2023-04-24T01:20:17;12.07;;;7.32;;
70342;SDS011;57767;42.068;24.752;2023-04-24T01:21:20;13.68;;;7.47;;
70342;SDS011;57767;42.068;24.752;2023-04-24T01:22:24;9.82;;;7.03;;
70342;SDS011;57767;42.068;24.752;2023-04-24T01:23:26;14.82;;;7.28;;
70342;SDS011;57767;42.068;24.752;2023-04-24T01:24:28;10.57;;;7.25;;
70342;SDS011;57767;42.068;24.752;2023-04-24T01:25:31;12.85;;;7.55;;
70342;SDS011;57767;42.068;24.752;2023-04-24T01:26:33;15.23;;;8.02;;
70342;SDS011;57767;42.068;24.752;2023-04-24T01:27:35;15.27;;;8.52;;
70342;SDS011;57767;42.068;24.752;2023-04-24T01:28:37;16.17;;;9.10;;
70342;SDS011;57767;42.068;24.752;2023-04-24T01:29:39;12.45;;;7.80;;
70342;SDS011;57767;42.068;24.752;2023-04-24T01:30:42;11.88;;;8.25;;
70342;SDS011;57767;42.068;24.752;2023-04-24T01:31:44;12.00;;;7.90;;
70342;SDS011;57767;42.068;24.752;2023-04-24T01:32:46;11.07;;;7.93;;
70342;SDS011;57767;42.068;24.752;2023-04-24T01:33:48;10.48;;;7.47;;
70342;SDS011;57767;42.068;24.752;2023-04-24T01:34:52;11.05;;;7.65;;
70342;SDS011;57767;42.068;24.752;2023-04-24T01:35:54;9.75;;;7.60;;
70342;SDS011;57767;42.068;24.752;2023-04-24T01:36:56;13.40;;;7.72;;
70342;SDS011;57767;42.068;24.752;2023-04-24T01:37:58;13.80;;;7.68;;
70342;SDS011;57767;42.068;24.752;2023-04-24T01:39:00;12.38;;;8.45;;
70342;SDS011;57767;42.068;24.752;2023-04-24T01:40:02;14.88;;;8.75;;
70342;SDS011;57767;42.068;24.752;2023-04-24T01:41:06;13.30;;;9.48;;
70342;SDS011;57767;42.068;24.752;2023-04-24T01:42:08;16.13;;;10.55;;
70342;SDS011;57767;42.068;24.752;2023-04-24T01:43:10;19.40;;;10.10;;
70342;SDS011;57767;42.068;24.752;2023-04-24T01:44:13;12.35;;;8.65;;
70342;SDS011;57767;42.068;24.752;2023-04-24T01:45:15;15.93;;;8.98;;
70342;SDS011;57767;42.068;24.752;2023-04-24T01:46:17;13.38;;;9.02;;
70342;SDS011;57767;42.068;24.752;2023-04-24T01:47:19;15.23;;;9.18;;
70342;SDS011;57767;42.068;24.752;2023-04-24T01:48:21;12.70;;;8.95;;
70342;SDS011;57767;42.068;24.752;2023-04-24T01:49:23;13.07;;;9.30;;
70342;SDS011;57767;42.068;24.752;2023-04-24T01:50:25;19.08;;;9.32;;
70342;SDS011;57767;42.068;24.752;2023-04-24T01:51:27;12.43;;;9.15;;
70342;SDS011;57767;42.068;24.752;2023-04-24T01:52:29;13.23;;;9.68;;
70342;SDS011;57767;42.068;24.752;2023-04-24T01:53:32;18.15;;;8.77;;
70342;SDS011;57767;42.068;24.752;2023-04-24T01:54:34;14.35;;;10.50;;
70342;SDS011;57767;42.068;24.752;2023-04-24T01:55:36;12.45;;;9.45;;
70342;SDS011;57767;42.068;24.752;2023-04-24T01:56:40;11.93;;;9.27;;
70342;SDS011;57767;42.068;24.752;2023-04-24T01:57:43;16.25;;;9.15;;
70342;SDS011;57767;42.068;24.752;2023-04-24T01:58:45;14.77;;;9.27;;
70342;SDS011;57767;42.068;24.752;2023-04-24T01:59:48;11.90;;;10.30;;
70342;SDS011;57767;42.068;24.752;2023-04-24T02:00:49;13.88;;;9.40;;
70342;SDS011;57767;42.068;24.752;2023-04-24T02:01:51;13.00;;;9.25;;
70342;SDS011;57767;42.068;24.752;2023-04-24T02:02:53;14.05;;;10.07;;
70342;SDS011;57767;42.068;24.752;2023-04-24T02:03:55;18.85;;;10.27;;
70342;SDS011;57767;42.068;24.752;2023-04-24T02:04:57;17.88;;;10.75;;
70342;SDS011;57767;42.068;24.752;2023-04-24T02:05:58;13.02;;;10.35;;
70342;SDS011;57767;42.068;24.752;2023-04-24T02:07:00;16.15;;;10.05;;
70342;SDS011;57767;42.068;24.752;2023-04-24T02:08:02;14.93;;;10.15;;
70342;SDS011;57767;42.068;24.752;2023-04-24T02:09:04;17.95;;;10.77;;
70342;SDS011;57767;42.068;24.752;2023-04-24T02:10:06;12.65;;;10.00;;
70342;SDS011;57767;42.068;24.752;2023-04-24T02:11:08;14.68;;;9.68;;
70342;SDS011;57767;42.068;24.752;2023-04-24T02:12:11;13.75;;;9.80;;
70342;SDS011;57767;42.068;24.752;2023-04-24T02:13:12;21.25;;;10.00;;
70342;SDS011;57767;42.068;24.752;2023-04-24T02:14:14;15.60;;;10.55;;
70342;SDS011;57767;42.068;24.752;2023-04-24T02:15:16;16.25;;;10.50;;
70342;SDS011;57767;42.068;24.752;2023-04-24T02:16:19;16.20;;;9.68;;
70342;SDS011;57767;42.068;24.752;2023-04-24T02:17:21;15.90;;;10.40;;
70342;SDS011;57767;42.068;24.752;2023-04-24T02:18:23;18.58;;;9.63;;
70342;SDS011;57767;42.068;24.752;2023-04-24T02:19:25;15.75;;;9.07;;
70342;SDS011;57767;42.068;24.752;2023-04-24T02:20:27;13.30;;;9.60;;
70342;SDS011;57767;42.068;24.752;2023-04-24T02:21:29;13.07;;;9.70;;
70342;SDS011;57767;42.068;24.752;2023-04-24T02:22:32;14.27;;;10.32;;
70342;SDS011;57767;42.068;24.752;2023-04-24T02:23:34;13.95;;;10.10;;
70342;SDS011;57767;42.068;24.752;2023-04-24T02:24:36;14.32;;;11.27;;
70342;SDS011;57767;42.068;24.752;2023-04-24T02:25:38;16.75;;;10.77;;
70342;SDS011;57767;42.068;24.752;2023-04-24T02:26:40;14.50;;;10.20;;
70342;SDS011;57767;42.068;24.752;2023-04-24T02:27:42;11.75;;;9.80;;
70342;SDS011;57767;42.068;24.752;2023-04-24T02:28:43;13.43;;;8.57;;
70342;SDS011;57767;42.068;24.752;2023-04-24T02:29:45;16.10;;;8.88;;
70342;SDS011;57767;42.068;24.752;2023-04-24T02:30:47;13.80;;;9.00;;
70342;SDS011;57767;42.068;24.752;2023-04-24T02:31:49;9.95;;;8.25;;
70342;SDS011;57767;42.068;24.752;2023-04-24T02:32:51;15.40;;;7.88;;
70342;SDS011;57767;42.068;24.752;2023-04-24T02:33:52;15.52;;;8.65;;
70342;SDS011;57767;42.068;24.752;2023-04-24T02:34:54;11.02;;;8.52;;
70342;SDS011;57767;42.068;24.752;2023-04-24T02:35:56;10.82;;;8.07;;
70342;SDS011;57767;42.068;24.752;2023-04-24T02:36:58;9.15;;;7.70;;
70342;SDS011;57767;42.068;24.752;2023-04-24T02:38:00;12.05;;;8.85;;
70342;SDS011;57767;42.068;24.752;2023-04-24T02:39:01;13.93;;;8.98;;
70342;SDS011;57767;42.068;24.752;2023-04-24T02:40:05;13.02;;;8.93;;
70342;SDS011;57767;42.068;24.752;2023-04-24T02:41:07;9.88;;;8.38;;
70342;SDS011;57767;42.068;24.752;2023-04-24T02:42:09;12.25;;;8.60;;
70342;SDS011;57767;42.068;24.752;2023-04-24T02:43:11;11.05;;;7.95;;
70342;SDS011;57767;42.068;24.752;2023-04-24T02:44:12;15.68;;;8.55;;
70342;SDS011;57767;42.068;24.752;2023-04-24T02:45:14;12.73;;;7.90;;
70342;SDS011;57767;42.068;24.752;2023-04-24T02:46:17;10.98;;;7.90;;
70342;SDS011;57767;42.068;24.752;2023-04-24T02:47:19;11.32;;;7.90;;
70342;SDS011;57767;42.068;24.752;2023-04-24T02:48:21;12.68;;;8.15;;
70342;SDS011;57767;42.068;24.752;2023-04-24T02:49:22;10.60;;;8.32;;
70342;SDS011;57767;42.068;24.752;2023-04-24T02:50:24;8.48;;;7.60;;
70342;SDS011;57767;42.068;24.752;2023-04-24T02:51:26;8.85;;;7.28;;
70342;SDS011;57767;42.068;24.752;2023-04-24T02:52:28;11.63;;;7.30;;
70342;SDS011;57767;42.068;24.752;2023-04-24T02:53:30;14.32;;;7.47;;
70342;SDS011;57767;42.068;24.752;2023-04-24T02:54:32;10.25;;;7.72;;
70342;SDS011;57767;42.068;24.752;2023-04-24T02:55:33;9.18;;;6.78;;
70342;SDS011;57767;42.068;24.752;2023-04-24T02:56:35;8.75;;;7.32;;
70342;SDS011;57767;42.068;24.752;2023-04-24T02:57:37;9.00;;;6.68;;
70342;SDS011;57767;42.068;24.752;2023-04-24T02:58:39;9.25;;;6.95;;
70342;SDS011;57767;42.068;24.752;2023-04-24T02:59:40;7.45;;;6.60;;
70342;SDS011;57767;42.068;24.752;2023-04-24T03:00:43;8.95;;;7.20;;
70342;SDS011;57767;42.068;24.752;2023-04-24T03:01:44;8.27;;;6.88;;
70342;SDS011;57767;42.068;24.752;2023-04-24T03:02:46;9.30;;;6.95;;
70342;SDS011;57767;42.068;24.752;2023-04-24T03:03:48;10.35;;;7.28;;
70342;SDS011;57767;42.068;24.752;2023-04-24T03:04:51;10.45;;;6.63;;
70342;SDS011;57767;42.068;24.752;2023-04-24T03:05:52;9.02;;;6.78;;
70342;SDS011;57767;42.068;24.752;2023-04-24T03:06:54;11.60;;;7.03;;
70342;SDS011;57767;42.068;24.752;2023-04-24T03:07:56;8.45;;;7.13;;
70342;SDS011;57767;42.068;24.752;2023-04-24T03:08:58;9.02;;;7.13;;
70342;SDS011;57767;42.068;24.752;2023-04-24T03:10:00;7.93;;;6.35;;
70342;SDS011;57767;42.068;24.752;2023-04-24T03:11:01;11.68;;;7.55;;
70342;SDS011;57767;42.068;24.752;2023-04-24T03:12:04;8.13;;;7.32;;
70342;SDS011;57767;42.068;24.752;2023-04-24T03:13:05;10.43;;;7.03;;
70342;SDS011;57767;42.068;24.752;2023-04-24T03:14:07;13.07;;;7.30;;
70342;SDS011;57767;42.068;24.752;2023-04-24T03:15:09;10.02;;;7.53;;
70342;SDS011;57767;42.068;24.752;2023-04-24T03:16:11;10.27;;;8.05;;
70342;SDS011;57767;42.068;24.752;2023-04-24T03:17:13;14.00;;;8.38;;
70342;SDS011;57767;42.068;24.752;2023-04-24T03:18:15;15.57;;;9.30;;
70342;SDS011;57767;42.068;24.752;2023-04-24T03:19:16;15.02;;;9.25;;
70342;SDS011;57767;42.068;24.752;2023-04-24T03:20:18;12.98;;;9.95;;
70342;SDS011;57767;42.068;24.752;2023-04-24T03:21:20;13.85;;;10.23;;
70342;SDS011;57767;42.068;24.752;2023-04-24T03:22:22;16.85;;;9.50;;
70342;SDS011;57767;42.068;24.752;2023-04-24T03:23:24;9.77;;;8.68;;
70342;SDS011;57767;42.068;24.752;2023-04-24T03:24:25;14.68;;;9.13;;
70342;SDS011;57767;42.068;24.752;2023-04-24T03:25:29;10.40;;;8.75;;
70342;SDS011;57767;42.068;24.752;2023-04-24T03:26:31;11.43;;;8.70;;
70342;SDS011;57767;42.068;24.752;2023-04-24T03:27:32;13.43;;;8.70;;
70342;SDS011;57767;42.068;24.752;2023-04-24T03:28:34;11.98;;;8.15;;
70342;SDS011;57767;42.068;24.752;2023-04-24T03:29:36;11.50;;;8.13;;
70342;SDS011;57767;42.068;24.752;2023-04-24T03:30:38;9.82;;;8.13;;
70342;SDS011;57767;42.068;24.752;2023-04-24T03:31:39;13.25;;;7.85;;
70342;SDS011;57767;42.068;24.752;2023-04-24T03:32:41;9.95;;;7.25;;
70342;SDS011;57767;42.068;24.752;2023-04-24T03:33:43;8.88;;;7.35;;
70342;SDS011;57767;42.068;24.752;2023-04-24T03:34:45;10.38;;;7.50;;
70342;SDS011;57767;42.068;24.752;2023-04-24T03:35:46;8.23;;;6.63;;
70342;SDS011;57767;42.068;24.752;2023-04-24T03:36:48;8.40;;;7.55;;
70342;SDS011;57767;42.068;24.752;2023-04-24T03:37:50;9.98;;;7.20;;
70342;SDS011;57767;42.068;24.752;2023-04-24T03:38:52;9.02;;;7.50;;
70342;SDS011;57767;42.068;24.752;2023-04-24T03:39:53;9.05;;;6.90;;
70342;SDS011;57767;42.068;24.752;2023-04-24T03:40:55;8.43;;;6.97;;
70342;SDS011;57767;42.068;24.752;2023-04-24T03:41:57;8.60;;;6.90;;
70342;SDS011;57767;42.068;24.752;2023-04-24T03:42:59;8.40;;;7.40;;
70342;SDS011;57767;42.068;24.752;2023-04-24T03:44:00;12.50;;;7.60;;
70342;SDS011;57767;42.068;24.752;2023-04-24T03:45:02;8.75;;;7.15;;
70342;SDS011;57767;42.068;24.752;2023-04-24T03:46:04;12.80;;;7.30;;
70342;SDS011;57767;42.068;24.752;2023-04-24T03:47:06;8.88;;;7.50;;
70342;SDS011;57767;42.068;24.752;2023-04-24T03:48:08;10.55;;;7.28;;
70342;SDS011;57767;42.068;24.752;2023-04-24T03:49:10;9.98;;;7.57;;
70342;SDS011;57767;42.068;24.752;2023-04-24T03:50:11;11.48;;;7.65;;
70342;SDS011;57767;42.068;24.752;2023-04-24T03:51:13;9.18;;;7.10;;
70342;SDS011;57767;42.068;24.752;2023-04-24T03:52:15;8.55;;;6.75;;
70342;SDS011;57767;42.068;24.752;2023-04-24T03:53:17;7.60;;;6.75;;
70342;SDS011;57767;42.068;24.752;2023-04-24T03:54:19;10.05;;;7.38;;
70342;SDS011;57767;42.068;24.752;2023-04-24T03:55:21;11.90;;;7.00;;
70342;SDS011;57767;42.068;24.752;2023-04-24T03:56:23;10.07;;;7.35;;
70342;SDS011;57767;42.068;24.752;2023-04-24T03:57:24;8.30;;;7.13;;
70342;SDS011;57767;42.068;24.752;2023-04-24T03:58:26;10.35;;;6.97;;
70342;SDS011;57767;42.068;24.752;2023-04-24T03:59:28;10.73;;;7.15;;
70342;SDS011;57767;42.068;24.752;2023-04-24T04:00:30;9.60;;;7.95;;
70342;SDS011;57767;42.068;24.752;2023-04-24T04:01:33;8.35;;;6.72;;
70342;SDS011;57767;42.068;24.752;2023-04-24T04:02:38;8.07;;;6.82;;
70342;SDS011;57767;42.068;24.752;2023-04-24T04:03:40;9.43;;;7.38;;
70342;SDS011;57767;42.068;24.752;2023-04-24T04:04:42;9.43;;;6.82;;
70342;SDS011;57767;42.068;24.752;2023-04-24T04:05:44;9.55;;;7.18;;
70342;SDS011;57767;42.068;24.752;2023-04-24T04:06:46;10.95;;;7.30;;
70342;SDS011;57767;42.068;24.752;2023-04-24T04:07:48;9.55;;;7.32;;
70342;SDS011;57767;42.068;24.752;2023-04-24T04:08:49;7.80;;;6.97;;
70342;SDS011;57767;42.068;24.752;2023-04-24T04:09:51;7.88;;;6.45;;
70342;SDS011;57767;42.068;24.752;2023-04-24T04:10:53;8.88;;;6.88;;
70342;SDS011;57767;42.068;24.752;2023-04-24T04:11:54;12.38;;;6.38;;
70342;SDS011;57767;42.068;24.752;2023-04-24T04:12:56;11.02;;;5.90;;
70342;SDS011;57767;42.068;24.752;2023-04-24T04:13:58;8.32;;;6.03;;
70342;SDS011;57767;42.068;24.752;2023-04-24T04:15:00;12.32;;;6.15;;
70342;SDS011;57767;42.068;24.752;2023-04-24T04:16:02;10.35;;;6.40;;
70342;SDS011;57767;42.068;24.752;2023-04-24T04:17:04;13.95;;;7.25;;
70342;SDS011;57767;42.068;24.752;2023-04-24T04:18:05;12.25;;;7.78;;
70342;SDS011;57767;42.068;24.752;2023-04-24T04:19:07;14.05;;;6.82;;
70342;SDS011;57767;42.068;24.752;2023-04-24T04:20:09;14.73;;;7.13;;
70342;SDS011;57767;42.068;24.752;2023-04-24T04:21:12;10.20;;;7.18;;
70342;SDS011;57767;42.068;24.752;2023-04-24T04:22:13;9.00;;;7.28;;
70342;SDS011;57767;42.068;24.752;2023-04-24T04:23:15;14.93;;;7.03;;
70342;SDS011;57767;42.068;24.752;2023-04-24T04:24:17;18.40;;;7.60;;
70342;SDS011;57767;42.068;24.752;2023-04-24T04:25:19;13.10;;;7.55;;
70342;SDS011;57767;42.068;24.752;2023-04-24T04:26:20;10.77;;;6.70;;
70342;SDS011;57767;42.068;24.752;2023-04-24T04:27:22;11.80;;;8.18;;
70342;SDS011;57767;42.068;24.752;2023-04-24T04:28:24;15.10;;;8.20;;
70342;SDS011;57767;42.068;24.752;2023-04-24T04:29:26;11.52;;;6.55;;
70342;SDS011;57767;42.068;24.752;2023-04-24T04:30:27;8.98;;;6.40;;
70342;SDS011;57767;42.068;24.752;2023-04-24T04:31:30;14.57;;;6.82;;
70342;SDS011;57767;42.068;24.752;2023-04-24T04:32:32;13.35;;;7.18;;
70342;SDS011;57767;42.068;24.752;2023-04-24T04:33:35;8.45;;;6.93;;
70342;SDS011;57767;42.068;24.752;2023-04-24T04:34:39;12.50;;;8.30;;
70342;SDS011;57767;42.068;24.752;2023-04-24T04:35:41;9.98;;;6.72;;
70342;SDS011;57767;42.068;24.752;2023-04-24T04:36:42;10.85;;;6.82;;
70342;SDS011;57767;42.068;24.752;2023-04-24T04:37:45;10.10;;;7.07;;
70342;SDS011;57767;42.068;24.752;2023-04-24T04:38:47;12.93;;;7.68;;
70342;SDS011;57767;42.068;24.752;2023-04-24T04:39:49;14.07;;;7.63;;
70342;SDS011;57767;42.068;24.752;2023-04-24T04:40:51;10.85;;;7.95;;
70342;SDS011;57767;42.068;24.752;2023-04-24T04:41:53;14.35;;;7.68;;
70342;SDS011;57767;42.068;24.752;2023-04-24T04:42:55;14.52;;;8.20;;
70342;SDS011;57767;42.068;24.752;2023-04-24T04:43:57;16.85;;;6.90;;
70342;SDS011;57767;42.068;24.752;2023-04-24T04:45:00;14.25;;;8.10;;
70342;SDS011;57767;42.068;24.752;2023-04-24T04:46:02;12.60;;;7.82;;
70342;SDS011;57767;42.068;24.752;2023-04-24T04:47:04;9.85;;;7.93;;
70342;SDS011;57767;42.068;24.752;2023-04-24T04:48:06;11.25;;;6.97;;
70342;SDS011;57767;42.068;24.752;2023-04-24T04:49:13;10.93;;;7.22;;
70342;SDS011;57767;42.068;24.752;2023-04-24T04:50:18;13.55;;;6.82;;
70342;SDS011;57767;42.068;24.752;2023-04-24T04:51:21;15.40;;;7.68;;
70342;SDS011;57767;42.068;24.752;2023-04-24T04:52:23;8.10;;;6.80;;
70342;SDS011;57767;42.068;24.752;2023-04-24T04:53:26;9.10;;;7.38;;
70342;SDS011;57767;42.068;24.752;2023-04-24T04:54:29;8.73;;;7.07;;
70342;SDS011;57767;42.068;24.752;2023-04-24T04:55:30;10.35;;;7.45;;
70342;SDS011;57767;42.068;24.752;2023-04-24T04:56:32;9.52;;;6.88;;
70342;SDS011;57767;42.068;24.752;2023-04-24T04:57:34;12.25;;;7.05;;
70342;SDS011;57767;42.068;24.752;2023-04-24T04:58:36;11.95;;;6.95;;
70342;SDS011;57767;42.068;24.752;2023-04-24T04:59:37;9.82;;;7.30;;
70342;SDS011;57767;42.068;24.752;2023-04-24T05:00:39;10.50;;;7.05;;
70342;SDS011;57767;42.068;24.752;2023-04-24T05:01:42;10.77;;;6.95;;
70342;SDS011;57767;42.068;24.752;2023-04-24T05:02:44;9.70;;;6.78;;
70342;SDS011;57767;42.068;24.752;2023-04-24T05:03:46;9.95;;;6.95;;
70342;SDS011;57767;42.068;24.752;2023-04-24T05:04:48;10.68;;;6.82;;
70342;SDS011;57767;42.068;24.752;2023-04-24T05:05:50;11.98;;;7.47;;
70342;SDS011;57767;42.068;24.752;2023-04-24T05:06:52;10.02;;;7.43;;
70342;SDS011;57767;42.068;24.752;2023-04-24T05:07:54;9.98;;;7.70;;
70342;SDS011;57767;42.068;24.752;2023-04-24T05:08:55;10.48;;;7.40;;
70342;SDS011;57767;42.068;24.752;2023-04-24T05:09:58;13.57;;;8.00;;
70342;SDS011;57767;42.068;24.752;2023-04-24T05:11:00;11.82;;;7.50;;
70342;SDS011;57767;42.068;24.752;2023-04-24T05:12:02;8.65;;;7.25;;
70342;SDS011;57767;42.068;24.752;2023-04-24T05:13:04;13.02;;;7.47;;
70342;SDS011;57767;42.068;24.752;2023-04-24T05:14:06;13.63;;;7.22;;
70342;SDS011;57767;42.068;24.752;2023-04-24T05:15:08;11.90;;;7.47;;
70342;SDS011;57767;42.068;24.752;2023-04-24T05:16:10;10.10;;;7.45;;
70342;SDS011;57767;42.068;24.752;2023-04-24T05:17:12;13.50;;;7.15;;
70342;SDS011;57767;42.068;24.752;2023-04-24T05:18:14;11.80;;;7.68;;
70342;SDS011;57767;42.068;24.752;2023-04-24T05:19:17;10.35;;;7.90;;
70342;SDS011;57767;42.068;24.752;2023-04-24T05:20:18;13.45;;;7.97;;
70342;SDS011;57767;42.068;24.752;2023-04-24T05:21:20;10.25;;;7.35;;
70342;SDS011;57767;42.068;24.752;2023-04-24T05:22:22;11.13;;;7.90;;
70342;SDS011;57767;42.068;24.752;2023-04-24T05:23:25;9.88;;;7.65;;
70342;SDS011;57767;42.068;24.752;2023-04-24T05:24:26;12.13;;;7.65;;
70342;SDS011;57767;42.068;24.752;2023-04-24T05:25:28;12.18;;;7.93;;
70342;SDS011;57767;42.068;24.752;2023-04-24T05:26:30;9.52;;;7.63;;
70342;SDS011;57767;42.068;24.752;2023-04-24T05:27:32;13.13;;;7.28;;
70342;SDS011;57767;42.068;24.752;2023-04-24T05:28:34;10.63;;;7.20;;
70342;SDS011;57767;42.068;24.752;2023-04-24T05:29:38;10.02;;;7.25;;
70342;SDS011;57767;42.068;24.752;2023-04-24T05:30:41;11.00;;;7.45;;
70342;SDS011;57767;42.068;24.752;2023-04-24T05:31:43;11.98;;;7.40;;
70342;SDS011;57767;42.068;24.752;2023-04-24T05:32:48;10.57;;;7.40;;
70342;SDS011;57767;42.068;24.752;2023-04-24T05:33:50;9.88;;;8.38;;
70342;SDS011;57767;42.068;24.752;2023-04-24T05:34:51;9.57;;;7.65;;
70342;SDS011;57767;42.068;24.752;2023-04-24T05:35:53;8.02;;;7.15;;
70342;SDS011;57767;42.068;24.752;2023-04-24T05:36:55;11.05;;;7.13;;
70342;SDS011;57767;42.068;24.752;2023-04-24T05:37:57;10.63;;;7.15;;
70342;SDS011;57767;42.068;24.752;2023-04-24T05:38:59;9.27;;;7.38;;
70342;SDS011;57767;42.068;24.752;2023-04-24T05:40:00;9.85;;;7.30;;
70342;SDS011;57767;42.068;24.752;2023-04-24T05:41:02;11.18;;;8.43;;
70342;SDS011;57767;42.068;24.752;2023-04-24T05:42:04;11.70;;;7.28;;
70342;SDS011;57767;42.068;24.752;2023-04-24T05:43:06;9.00;;;7.60;;
70342;SDS011;57767;42.068;24.752;2023-04-24T05:44:08;16.52;;;7.65;;
70342;SDS011;57767;42.068;24.752;2023-04-24T05:45:10;12.05;;;7.47;;
70342;SDS011;57767;42.068;24.752;2023-04-24T05:46:17;12.43;;;7.53;;
70342;SDS011;57767;42.068;24.752;2023-04-24T05:47:19;13.48;;;8.07;;
70342;SDS011;57767;42.068;24.752;2023-04-24T05:48:23;12.85;;;8.25;;
70342;SDS011;57767;42.068;24.752;2023-04-24T05:49:24;14.02;;;8.65;;
70342;SDS011;57767;42.068;24.752;2023-04-24T05:50:26;17.38;;;8.80;;
70342;SDS011;57767;42.068;24.752;2023-04-24T05:51:28;9.70;;;8.80;;
70342;SDS011;57767;42.068;24.752;2023-04-24T05:52:30;15.60;;;9.02;;
70342;SDS011;57767;42.068;24.752;2023-04-24T05:53:32;17.17;;;8.55;;
70342;SDS011;57767;42.068;24.752;2023-04-24T05:54:33;15.27;;;10.13;;
70342;SDS011;57767;42.068;24.752;2023-04-24T05:55:36;16.23;;;10.20;;
70342;SDS011;57767;42.068;24.752;2023-04-24T05:56:38;13.73;;;8.88;;
70342;SDS011;57767;42.068;24.752;2023-04-24T05:57:43;14.75;;;9.60;;
70342;SDS011;57767;42.068;24.752;2023-04-24T05:58:45;11.95;;;8.65;;
70342;SDS011;57767;42.068;24.752;2023-04-24T05:59:47;13.68;;;9.05;;
70342;SDS011;57767;42.068;24.752;2023-04-24T06:00:49;20.45;;;10.60;;
70342;SDS011;57767;42.068;24.752;2023-04-24T06:01:51;14.05;;;9.23;;
70342;SDS011;57767;42.068;24.752;2023-04-24T06:02:53;13.27;;;9.20;;
70342;SDS011;57767;42.068;24.752;2023-04-24T06:03:56;15.63;;;9.02;;